• Join FlightAware (Why Join?)
  • Login
  • US Flag 
08:17PM EDT


 

Airport Tracker/Info


-or-


 

Live Flight TrackerFlight Track Log ✈ GJS3710 ✈ 24-Jun-2013 ✈ KORD - KALB

Flight Track Log - Related Links

Times and Time Zones

All times are in EDT time to prevent confusion due to time zone crossing. See the GJS3710 flight status page for this flight to view local times or setup timezone preferences in your user account.

Time Position Orientation Groundspeed Altitude Reporting Facility
EDT Latitude Longitude Course Direction KTS MPH feet Rate Location/Type
10:41PM 42.0000 -87.9333 North 158 182 1,100  Level Chicago TRACON
10:42PM 42.0333 -87.9833 312° West 193 222 3,100 1,560 Climbing Chicago TRACON
10:43PM 42.0833 -88.0167 334° Northwest 223 257 4,300 900 Climbing Chicago TRACON
10:45PM 42.4329 -87.7501 10° North  Level FlightAware Approximate
10:45PM 42.1911 -88.0644 342° North 271 312 5,700  Level Chicago Center
10:46PM 42.5502 -87.7133 North  Level FlightAware Approximate
10:46PM 42.2692 -88.0572 North 284 327 8,100  Level Chicago Center
10:47PM 42.3533 -88.0497 North 284 327 10,600 1,980 Climbing Chicago Center
10:48PM 42.4414 -88.0489 360° North 312 359 12,200 1,380 Climbing Chicago Center
10:49PM 42.5339 -87.9878 26° Northeast 391 450 13,500 1,440 Climbing Chicago Center
10:50PM 42.6175 -87.8892 41° Northeast 399 459 15,200 1,620 Climbing Chicago Center
10:51PM 42.7022 -87.7850 42° Northeast 409 471 16,900 1,680 Climbing Chicago Center
10:52PM 42.7883 -87.6819 41° Northeast 411 473 18,700 1,380 Climbing Chicago Center
10:53PM 42.8469 -87.5439 60° Northeast 430 495 19,800 1,080 Climbing Chicago Center
10:54PM 42.8853 -87.3742 73° East 429 494 21,000 1,020 Climbing Chicago Center
10:55PM 42.9181 -87.2169 74° East 431 496 21,900 600 Climbing Chicago Center
10:56PM 42.9542 -87.0519 73° East 452 520 22,300 660 Climbing Chicago Center
10:57PM 42.9917 -86.8836 73° East 463 533 23,300 960 Climbing Chicago Center
10:58PM 43.0186 -86.7111 78° East 466 536 24,300 960 Climbing Chicago Center
10:59PM 43.0178 -86.5344 90° East 464 534 25,300 1,020 Climbing Chicago Center
11:00PM 43.0153 -86.3206 91° East 470 541 26,400 840 Climbing Chicago Center
11:01PM 43.0144 -86.1408 90° East 475 547 27,100 660 Climbing Chicago Center
11:02PM 43.0183 -85.9469 88° East 484 557 27,800 660 Climbing Chicago Center
11:03PM 43.0322 -85.7803 83° East 506 582 28,500 600 Climbing Chicago Center
11:04PM 43.0489 -85.5944 83° East 498 573 29,100 720 Climbing Chicago Center
11:05PM 43.0675 -85.3678 84° East 501 577 30,000 780 Climbing Chicago Center
11:06PM 43.0842 -85.1783 83° East 502 578 30,800 900 Climbing Chicago Center
11:07PM 43.0989 -84.9894 84° East 501 577 31,900 900 Climbing Chicago Center
11:08PM 43.1142 -84.8017 84° East 499 574 32,700 540 Climbing Chicago Center
11:09PM 43.1292 -84.6122 84° East 500 575 33,000 120 Climbing Chicago Center
11:10PM 43.1436 -84.4178 84° East 512 589 33,000  Level Chicago Center
11:11PM 43.1578 -84.2208 84° East 519 597 33,000 180 Level Chicago Center
11:12PM 43.1731 -84.0256 84° East 517 595 33,400 600 Climbing Chicago Center
11:13PM 43.1667 -83.8833 93° East 510 587 34,000 840 Climbing Toronto Center
11:14PM 43.1906 -83.7297 78° East 516 594 34,600 540 Climbing Cleveland Center
11:15PM 43.2017 -83.5425 85° East 510 587 35,000 180 Climbing Cleveland Center
11:16PM 43.2169 -83.3494 84° East 510 587 35,000  Level Cleveland Center
11:17PM 43.2275 -83.1561 86° East 505 581 35,000  Level Cleveland Center
11:18PM 43.2422 -82.9600 84° East 505 581 35,000  Level Cleveland Center
11:19PM 43.2522 -82.7667 86° East 505 581 35,000  Level Cleveland Center
11:20PM 43.2767 -82.5736 80° East 511 588 35,000  Level Cleveland Center
11:21PM 43.3047 -82.3833 78° East 516 594 35,000  Level Cleveland Center
11:22PM 43.3283 -82.1900 80° East 516 594 35,000  Level Cleveland Center
11:23PM 43.3000 -81.9500 99° East 510 587 35,000  Level Toronto Center
11:24PM 43.3167 -81.7667 83° East 510 587 35,000  Level Toronto Center
11:25PM 43.3000 -81.5500 96° East 510 587 35,000  Level Toronto Center
11:26PM 43.2833 -81.3667 97° East 510 587 35,000  Level Toronto Center
11:27PM 43.2833 -81.1667 90° East 510 587 35,000  Level Toronto Center
11:28PM 43.2667 -80.9833 97° East 510 587 35,000  Level Toronto Center
11:29PM 43.2833 -80.8000 83° East 510 587 35,000  Level Toronto Center
11:30PM 43.2667 -80.6000 96° East 500 575 35,000  Level Toronto Center
11:31PM 43.2500 -80.3833 96° East 500 575 35,000  Level Toronto Center
11:32PM 43.2500 -80.2000 90° East 500 575 35,000  Level Toronto Center
11:33PM 43.2333 -80.0167 97° East 500 575 35,000  Level Toronto Center
11:34PM 43.2167 -79.8333 97° East 500 575 35,000  Level Toronto Center
11:35PM 43.2167 -79.6500 90° East 500 575 35,000  Level Toronto Center
11:36PM 43.2000 -79.4500 96° East 500 575 35,000  Level Toronto Center
11:37PM 43.2000 -79.2667 90° East 500 575 35,000  Level Toronto Center
11:38PM 43.1833 -79.0833 97° East 500 575 35,000  Level Toronto Center
11:39PM 43.1667 -78.9000 97° East 500 575 35,000  Level Toronto Center
11:40PM 43.1689 -78.7558 89° East 498 573 35,000  Level Cleveland Center
11:41PM 43.1575 -78.5656 95° East 498 573 35,000  Level Cleveland Center
11:42PM 43.1456 -78.3753 95° East 498 573 35,000  Level Cleveland Center
11:43PM 43.1314 -78.1850 96° East 498 573 35,000  Level Cleveland Center
11:44PM 43.1192 -77.9978 95° East 498 573 35,000 -60 Level Cleveland Center
11:45PM 43.1042 -77.8050 96° East 498 573 34,900 -600 Descending Cleveland Center
11:46PM 43.0933 -77.6150 94° East 498 573 33,800 -960 Descending Cleveland Center
11:47PM 43.0778 -77.4225 96° East 498 573 33,000 -480 Descending Cleveland Center
11:49PM 43.0333 -76.9667 97° East 510 587 32,400 -540 Descending Toronto Center
11:50PM 43.0333 -76.7833 90° East 510 587 31,400 -1,020 Descending Toronto Center
11:51PM 43.0222 -76.7261 105° East 518 596 30,900 -1,020 Descending Boston Center
11:52PM 43.0081 -76.5406 96° East 506 582 29,900 -960 Descending Boston Center
11:53PM 42.9936 -76.3636 96° East 486 559 29,000 -480 Descending Boston Center
11:54PM 42.9786 -76.1839 96° East 486 559 29,000  Level Boston Center
11:55PM 42.9617 -76.0039 97° East 486 559 29,000 -60 Level Boston Center
11:56PM 42.9442 -75.8242 98° East 486 559 28,900  Descending Boston Center
11:57PM 42.9286 -75.6417 97° East 486 559 29,000  Climbing Boston Center
11:58PM 42.9125 -75.4622 97° East 486 559 28,900 -1,740 Descending Boston Center
11:59PM 42.8964 -75.2858 97° East 486 559 25,600 -3,120 Descending Boston Center
12:00AM 42.8797 -75.1122 97° East 486 559 22,100 -3,480 Descending Boston Center
12:01AM 42.8611 -74.9131 97° East 486 559 18,000 -3,840 Descending Boston Center
12:02AM 42.8442 -74.7339 97° East 486 559 14,500 -2,940 Descending Boston Center
12:03AM 42.8322 -74.6003 97° East 486 559 12,200 -2,040 Descending Boston Center
12:03AM 42.8175 -74.4950 101° East 375 432 11,100 -660 Descending Boston Center
12:05AM 42.8036 -74.3361 97° East 390 449 11,100 -180 Level Boston Center
12:06AM 42.7578 -74.2019 115° Southeast 345 397 10,800 -840 Descending Boston Center
12:07AM 42.7092 -74.1072 125° Southeast 296 341 9,500 -1,440 Descending Boston Center
12:08AM 42.6792 -74.0075 112° Southeast 274 315 7,900 -2,100 Descending Boston Center
12:09AM 42.6597 -73.9139 106° East 250 288 5,300 -2,160 Descending Boston Center
12:10AM 42.6544 -73.8261 95° East 213 245 3,600 -1,980 Descending Boston Center
12:11AM 42.6881 -73.8044 25° Northeast 141 162 1,400 -1,560 Descending Boston Center
12:12AM 42.7297 -73.8081 356° North 145 167 500 -900 Descending Boston Center